CheckWX is a tool to help pilots better visualize weather data.  It is not intended as a substitute for an official pre-flight weather briefing.

02:24:32 UTC

KLOU METAR
Bowman Field
Louisville, Kentucky, USA
Current

32 mins ago

KLOU 150153Z 00000KT 10SM CLR 26/17 A3004 RMK AO2 SLP165 T02610167
Observed
Jul-15 @ 01:53 UTC
Visibility
10 SM
Flight Rules
VFR
Cloud Levels
  • Clear skies
Temperature
26°C / 79°F
Dewpoint
17°C / 63°F
Humidity
58%
Altimeter
30.04" Hg
Pressure
1017.32 hPa
Previous

2 hours ago

KLOU 150053Z 16003KT 10SM CLR 29/16 A3003 RMK AO2 SLP162 T02890156
Observed
Jul-15 @ 00:53 UTC
Wind
  • 160° at 3 KTS
Visibility
10 SM
Flight Rules
VFR
Cloud Levels
  • Clear skies
Temperature
29°C / 84°F
Dewpoint
16°C / 61°F
Humidity
45%
Altimeter
30.03" Hg
Pressure
1016.92 hPa
Previous

3 hours ago

KLOU 142353Z 34003KT 10SM FEW070 29/17 A3002 RMK AO2 SLP161 T02940172 10322 20289 50003
Observed
Jul-14 @ 23:53 UTC
Wind
  • 340° at 3 KTS
Visibility
10 SM
Flight Rules
VFR
Cloud Levels
  • Few at 7,000' AGL
Temperature
29°C / 84°F
Dewpoint
17°C / 63°F
Humidity
48%
Altimeter
30.02" Hg
Pressure
1016.62 hPa